sensor_id;sensor_type;location;lat;lon;timestamp;P1;durP1;ratioP1;P2;durP2;ratioP2
55423;SDS011;41294;42.666;23.350;2024-01-15T00:01:35;46.97;;;25.00;;
55423;SDS011;41294;42.666;23.350;2024-01-15T00:04:01;44.53;;;26.27;;
55423;SDS011;41294;42.666;23.350;2024-01-15T00:06:26;39.67;;;25.27;;
55423;SDS011;41294;42.666;23.350;2024-01-15T00:08:53;44.87;;;25.80;;
55423;SDS011;41294;42.666;23.350;2024-01-15T00:11:19;44.87;;;25.47;;
55423;SDS011;41294;42.666;23.350;2024-01-15T00:13:44;44.47;;;25.47;;
55423;SDS011;41294;42.666;23.350;2024-01-15T00:16:10;41.40;;;25.77;;
55423;SDS011;41294;42.666;23.350;2024-01-15T00:18:35;44.33;;;24.50;;
55423;SDS011;41294;42.666;23.350;2024-01-15T00:21:01;41.97;;;25.30;;
55423;SDS011;41294;42.666;23.350;2024-01-15T00:23:26;46.43;;;25.57;;
55423;SDS011;41294;42.666;23.350;2024-01-15T00:25:52;41.87;;;25.93;;
55423;SDS011;41294;42.666;23.350;2024-01-15T00:28:17;41.37;;;25.50;;
55423;SDS011;41294;42.666;23.350;2024-01-15T00:30:43;47.77;;;26.50;;
55423;SDS011;41294;42.666;23.350;2024-01-15T00:33:08;40.33;;;25.37;;
55423;SDS011;41294;42.666;23.350;2024-01-15T00:35:37;42.33;;;25.27;;
55423;SDS011;41294;42.666;23.350;2024-01-15T00:38:02;39.83;;;25.53;;
55423;SDS011;41294;42.666;23.350;2024-01-15T00:40:28;42.73;;;25.47;;
55423;SDS011;41294;42.666;23.350;2024-01-15T00:42:54;43.37;;;24.30;;
55423;SDS011;41294;42.666;23.350;2024-01-15T00:45:19;43.10;;;25.53;;
55423;SDS011;41294;42.666;23.350;2024-01-15T00:47:45;43.90;;;26.20;;
55423;SDS011;41294;42.666;23.350;2024-01-15T00:50:10;42.67;;;25.43;;
55423;SDS011;41294;42.666;23.350;2024-01-15T00:52:36;42.87;;;25.07;;
55423;SDS011;41294;42.666;23.350;2024-01-15T00:55:01;43.30;;;25.43;;
55423;SDS011;41294;42.666;23.350;2024-01-15T00:57:27;40.73;;;24.80;;
55423;SDS011;41294;42.666;23.350;2024-01-15T00:59:52;44.20;;;24.57;;
55423;SDS011;41294;42.666;23.350;2024-01-15T01:02:17;40.27;;;24.53;;
55423;SDS011;41294;42.666;23.350;2024-01-15T01:04:43;41.77;;;25.00;;
55423;SDS011;41294;42.666;23.350;2024-01-15T01:07:08;42.30;;;25.07;;
55423;SDS011;41294;42.666;23.350;2024-01-15T01:09:34;43.80;;;25.70;;
55423;SDS011;41294;42.666;23.350;2024-01-15T01:11:59;39.73;;;24.17;;
55423;SDS011;41294;42.666;23.350;2024-01-15T01:14:25;45.43;;;24.73;;
55423;SDS011;41294;42.666;23.350;2024-01-15T01:16:50;42.97;;;24.57;;
55423;SDS011;41294;42.666;23.350;2024-01-15T01:19:16;47.10;;;26.43;;
55423;SDS011;41294;42.666;23.350;2024-01-15T01:21:41;44.17;;;25.80;;
55423;SDS011;41294;42.666;23.350;2024-01-15T01:24:07;40.27;;;24.80;;
55423;SDS011;41294;42.666;23.350;2024-01-15T01:26:32;44.03;;;25.20;;
55423;SDS011;41294;42.666;23.350;2024-01-15T01:28:58;49.13;;;26.13;;
55423;SDS011;41294;42.666;23.350;2024-01-15T01:31:24;46.20;;;25.83;;
55423;SDS011;41294;42.666;23.350;2024-01-15T01:33:49;45.63;;;26.13;;
55423;SDS011;41294;42.666;23.350;2024-01-15T01:36:15;44.43;;;25.70;;
55423;SDS011;41294;42.666;23.350;2024-01-15T01:38:40;47.63;;;26.33;;
55423;SDS011;41294;42.666;23.350;2024-01-15T01:41:06;43.83;;;26.40;;
55423;SDS011;41294;42.666;23.350;2024-01-15T01:43:32;48.67;;;28.00;;
55423;SDS011;41294;42.666;23.350;2024-01-15T01:45:58;46.13;;;28.40;;
55423;SDS011;41294;42.666;23.350;2024-01-15T01:48:25;48.83;;;26.77;;
55423;SDS011;41294;42.666;23.350;2024-01-15T01:50:57;47.60;;;27.23;;
55423;SDS011;41294;42.666;23.350;2024-01-15T01:53:25;45.80;;;27.40;;
55423;SDS011;41294;42.666;23.350;2024-01-15T01:55:52;48.47;;;26.97;;
55423;SDS011;41294;42.666;23.350;2024-01-15T01:58:18;46.30;;;27.27;;
55423;SDS011;41294;42.666;23.350;2024-01-15T02:00:45;43.73;;;25.83;;
55423;SDS011;41294;42.666;23.350;2024-01-15T02:03:12;43.80;;;25.43;;
55423;SDS011;41294;42.666;23.350;2024-01-15T02:05:37;44.03;;;27.03;;
55423;SDS011;41294;42.666;23.350;2024-01-15T02:08:04;43.27;;;25.90;;
55423;SDS011;41294;42.666;23.350;2024-01-15T02:10:30;45.27;;;26.20;;
55423;SDS011;41294;42.666;23.350;2024-01-15T02:12:55;44.00;;;27.00;;
55423;SDS011;41294;42.666;23.350;2024-01-15T02:15:21;46.40;;;26.70;;
55423;SDS011;41294;42.666;23.350;2024-01-15T02:17:56;42.83;;;24.67;;
55423;SDS011;41294;42.666;23.350;2024-01-15T02:20:23;45.23;;;26.60;;
55423;SDS011;41294;42.666;23.350;2024-01-15T02:22:48;44.87;;;26.03;;
55423;SDS011;41294;42.666;23.350;2024-01-15T02:25:13;38.87;;;24.73;;
55423;SDS011;41294;42.666;23.350;2024-01-15T02:27:39;49.63;;;26.03;;
55423;SDS011;41294;42.666;23.350;2024-01-15T02:30:06;45.10;;;26.63;;
55423;SDS011;41294;42.666;23.350;2024-01-15T02:32:33;47.13;;;26.47;;
55423;SDS011;41294;42.666;23.350;2024-01-15T02:34:58;43.40;;;25.83;;
55423;SDS011;41294;42.666;23.350;2024-01-15T02:37:24;44.30;;;25.50;;
55423;SDS011;41294;42.666;23.350;2024-01-15T02:39:49;43.00;;;25.67;;
55423;SDS011;41294;42.666;23.350;2024-01-15T02:42:15;42.73;;;25.73;;
55423;SDS011;41294;42.666;23.350;2024-01-15T02:44:40;44.10;;;25.23;;
55423;SDS011;41294;42.666;23.350;2024-01-15T02:47:06;41.97;;;25.50;;
55423;SDS011;41294;42.666;23.350;2024-01-15T02:49:31;42.13;;;25.47;;
55423;SDS011;41294;42.666;23.350;2024-01-15T02:51:57;41.97;;;25.27;;
55423;SDS011;41294;42.666;23.350;2024-01-15T02:54:23;39.13;;;25.20;;
55423;SDS011;41294;42.666;23.350;2024-01-15T02:56:48;42.73;;;25.23;;
55423;SDS011;41294;42.666;23.350;2024-01-15T02:59:14;41.97;;;25.33;;
55423;SDS011;41294;42.666;23.350;2024-01-15T03:01:39;40.83;;;25.47;;
55423;SDS011;41294;42.666;23.350;2024-01-15T03:04:04;40.97;;;24.80;;
55423;SDS011;41294;42.666;23.350;2024-01-15T03:06:30;45.57;;;26.63;;
55423;SDS011;41294;42.666;23.350;2024-01-15T03:08:55;39.87;;;24.93;;
55423;SDS011;41294;42.666;23.350;2024-01-15T03:11:21;38.10;;;24.33;;
55423;SDS011;41294;42.666;23.350;2024-01-15T03:13:46;41.03;;;25.90;;
55423;SDS011;41294;42.666;23.350;2024-01-15T03:16:12;47.37;;;25.70;;
55423;SDS011;41294;42.666;23.350;2024-01-15T03:18:37;43.27;;;25.33;;
55423;SDS011;41294;42.666;23.350;2024-01-15T03:21:03;37.63;;;23.73;;
55423;SDS011;41294;42.666;23.350;2024-01-15T03:23:30;41.50;;;24.77;;
55423;SDS011;41294;42.666;23.350;2024-01-15T03:25:55;44.03;;;25.20;;
55423;SDS011;41294;42.666;23.350;2024-01-15T03:28:21;39.80;;;24.50;;
55423;SDS011;41294;42.666;23.350;2024-01-15T03:30:46;45.27;;;26.07;;
55423;SDS011;41294;42.666;23.350;2024-01-15T03:33:12;48.00;;;26.00;;
55423;SDS011;41294;42.666;23.350;2024-01-15T03:35:37;41.73;;;25.30;;
55423;SDS011;41294;42.666;23.350;2024-01-15T03:38:03;43.90;;;26.20;;
55423;SDS011;41294;42.666;23.350;2024-01-15T03:40:28;42.93;;;26.13;;
55423;SDS011;41294;42.666;23.350;2024-01-15T03:42:54;50.13;;;28.93;;
55423;SDS011;41294;42.666;23.350;2024-01-15T03:45:19;43.73;;;26.03;;
55423;SDS011;41294;42.666;23.350;2024-01-15T03:47:45;46.87;;;26.90;;
55423;SDS011;41294;42.666;23.350;2024-01-15T03:50:10;50.13;;;28.40;;
55423;SDS011;41294;42.666;23.350;2024-01-15T03:52:36;46.53;;;27.60;;
55423;SDS011;41294;42.666;23.350;2024-01-15T03:55:03;44.73;;;26.67;;
55423;SDS011;41294;42.666;23.350;2024-01-15T03:57:29;48.10;;;27.40;;
55423;SDS011;41294;42.666;23.350;2024-01-15T03:59:54;48.10;;;27.80;;
55423;SDS011;41294;42.666;23.350;2024-01-15T04:02:20;44.63;;;27.17;;
55423;SDS011;41294;42.666;23.350;2024-01-15T04:04:45;41.97;;;25.73;;
55423;SDS011;41294;42.666;23.350;2024-01-15T04:07:11;40.93;;;25.27;;
55423;SDS011;41294;42.666;23.350;2024-01-15T04:09:36;44.53;;;25.90;;
55423;SDS011;41294;42.666;23.350;2024-01-15T04:12:02;43.63;;;25.77;;
55423;SDS011;41294;42.666;23.350;2024-01-15T04:14:27;42.20;;;25.93;;
55423;SDS011;41294;42.666;23.350;2024-01-15T04:16:53;43.50;;;25.80;;
55423;SDS011;41294;42.666;23.350;2024-01-15T04:19:19;42.37;;;24.40;;
55423;SDS011;41294;42.666;23.350;2024-01-15T04:21:44;39.53;;;24.63;;
55423;SDS011;41294;42.666;23.350;2024-01-15T04:24:10;43.03;;;24.83;;
55423;SDS011;41294;42.666;23.350;2024-01-15T04:26:35;37.43;;;23.83;;
55423;SDS011;41294;42.666;23.350;2024-01-15T04:29:01;38.37;;;23.43;;
55423;SDS011;41294;42.666;23.350;2024-01-15T04:31:26;41.03;;;24.13;;
55423;SDS011;41294;42.666;23.350;2024-01-15T04:33:52;37.83;;;23.53;;
55423;SDS011;41294;42.666;23.350;2024-01-15T04:36:18;39.77;;;23.20;;
55423;SDS011;41294;42.666;23.350;2024-01-15T04:38:43;41.13;;;22.90;;
55423;SDS011;41294;42.666;23.350;2024-01-15T04:41:12;35.57;;;22.03;;
55423;SDS011;41294;42.666;23.350;2024-01-15T04:43:38;37.97;;;22.13;;
55423;SDS011;41294;42.666;23.350;2024-01-15T04:46:05;41.30;;;24.07;;
55423;SDS011;41294;42.666;23.350;2024-01-15T04:48:31;36.87;;;23.13;;
55423;SDS011;41294;42.666;23.350;2024-01-15T04:50:57;39.60;;;23.77;;
55423;SDS011;41294;42.666;23.350;2024-01-15T04:53:22;35.93;;;22.17;;
55423;SDS011;41294;42.666;23.350;2024-01-15T04:55:48;36.07;;;23.23;;
55423;SDS011;41294;42.666;23.350;2024-01-15T04:58:13;38.80;;;23.77;;
55423;SDS011;41294;42.666;23.350;2024-01-15T05:00:39;39.70;;;23.23;;
55423;SDS011;41294;42.666;23.350;2024-01-15T05:03:04;35.50;;;23.33;;
55423;SDS011;41294;42.666;23.350;2024-01-15T05:05:31;42.30;;;25.37;;
55423;SDS011;41294;42.666;23.350;2024-01-15T05:07:56;38.83;;;24.30;;
55423;SDS011;41294;42.666;23.350;2024-01-15T05:10:22;40.67;;;24.90;;
55423;SDS011;41294;42.666;23.350;2024-01-15T05:12:48;39.93;;;23.70;;
55423;SDS011;41294;42.666;23.350;2024-01-15T05:15:13;40.13;;;24.20;;
55423;SDS011;41294;42.666;23.350;2024-01-15T05:17:39;36.97;;;24.20;;
55423;SDS011;41294;42.666;23.350;2024-01-15T05:20:04;42.87;;;24.53;;
55423;SDS011;41294;42.666;23.350;2024-01-15T05:22:30;43.43;;;25.53;;
55423;SDS011;41294;42.666;23.350;2024-01-15T05:24:56;45.13;;;26.17;;
55423;SDS011;41294;42.666;23.350;2024-01-15T05:27:21;42.73;;;26.23;;
55423;SDS011;41294;42.666;23.350;2024-01-15T05:29:47;43.70;;;26.47;;
55423;SDS011;41294;42.666;23.350;2024-01-15T05:32:12;43.30;;;26.57;;
55423;SDS011;41294;42.666;23.350;2024-01-15T05:34:38;43.43;;;26.27;;
55423;SDS011;41294;42.666;23.350;2024-01-15T05:37:04;41.87;;;25.30;;
55423;SDS011;41294;42.666;23.350;2024-01-15T05:39:30;44.93;;;27.23;;
55423;SDS011;41294;42.666;23.350;2024-01-15T05:41:57;47.33;;;28.43;;
55423;SDS011;41294;42.666;23.350;2024-01-15T05:44:23;49.33;;;29.17;;
55423;SDS011;41294;42.666;23.350;2024-01-15T05:46:49;50.80;;;28.87;;
55423;SDS011;41294;42.666;23.350;2024-01-15T05:49:14;47.03;;;27.90;;
55423;SDS011;41294;42.666;23.350;2024-01-15T05:51:40;48.63;;;29.10;;
55423;SDS011;41294;42.666;23.350;2024-01-15T05:54:05;46.97;;;29.90;;
55423;SDS011;41294;42.666;23.350;2024-01-15T05:56:31;50.20;;;29.30;;
55423;SDS011;41294;42.666;23.350;2024-01-15T05:58:56;52.60;;;30.40;;
55423;SDS011;41294;42.666;23.350;2024-01-15T06:01:22;52.03;;;30.17;;
55423;SDS011;41294;42.666;23.350;2024-01-15T06:03:47;48.37;;;29.43;;
55423;SDS011;41294;42.666;23.350;2024-01-15T06:06:13;48.67;;;29.47;;
55423;SDS011;41294;42.666;23.350;2024-01-15T06:08:38;47.27;;;29.20;;
55423;SDS011;41294;42.666;23.350;2024-01-15T06:11:06;46.47;;;29.67;;
55423;SDS011;41294;42.666;23.350;2024-01-15T06:13:32;51.67;;;30.73;;
55423;SDS011;41294;42.666;23.350;2024-01-15T06:15:57;48.77;;;29.97;;
55423;SDS011;41294;42.666;23.350;2024-01-15T06:18:23;54.73;;;31.60;;
55423;SDS011;41294;42.666;23.350;2024-01-15T06:20:48;55.80;;;32.07;;
55423;SDS011;41294;42.666;23.350;2024-01-15T06:23:14;59.80;;;35.93;;
55423;SDS011;41294;42.666;23.350;2024-01-15T06:25:39;57.37;;;34.83;;
55423;SDS011;41294;42.666;23.350;2024-01-15T06:28:05;53.07;;;31.63;;
55423;SDS011;41294;42.666;23.350;2024-01-15T06:30:30;54.73;;;32.37;;
55423;SDS011;41294;42.666;23.350;2024-01-15T06:32:56;58.53;;;34.53;;
55423;SDS011;41294;42.666;23.350;2024-01-15T06:35:22;58.30;;;34.80;;
55423;SDS011;41294;42.666;23.350;2024-01-15T06:37:47;58.93;;;35.23;;
55423;SDS011;41294;42.666;23.350;2024-01-15T06:40:13;61.17;;;36.00;;
55423;SDS011;41294;42.666;23.350;2024-01-15T06:42:39;59.57;;;35.90;;
55423;SDS011;41294;42.666;23.350;2024-01-15T06:45:05;59.97;;;36.47;;
55423;SDS011;41294;42.666;23.350;2024-01-15T06:47:30;63.37;;;37.90;;
55423;SDS011;41294;42.666;23.350;2024-01-15T06:49:57;59.97;;;35.67;;
55423;SDS011;41294;42.666;23.350;2024-01-15T06:52:25;67.77;;;39.13;;
55423;SDS011;41294;42.666;23.350;2024-01-15T06:54:50;73.97;;;42.43;;
55423;SDS011;41294;42.666;23.350;2024-01-15T06:57:16;67.80;;;40.77;;
55423;SDS011;41294;42.666;23.350;2024-01-15T06:59:41;73.43;;;42.40;;
55423;SDS011;41294;42.666;23.350;2024-01-15T07:02:07;77.03;;;43.97;;
55423;SDS011;41294;42.666;23.350;2024-01-15T07:04:32;70.03;;;41.17;;
55423;SDS011;41294;42.666;23.350;2024-01-15T07:06:58;75.63;;;42.37;;
55423;SDS011;41294;42.666;23.350;2024-01-15T07:09:23;77.60;;;44.23;;
55423;SDS011;41294;42.666;23.350;2024-01-15T07:11:49;78.37;;;44.77;;
55423;SDS011;41294;42.666;23.350;2024-01-15T07:14:14;80.50;;;46.13;;
55423;SDS011;41294;42.666;23.350;2024-01-15T07:16:40;78.73;;;44.37;;
55423;SDS011;41294;42.666;23.350;2024-01-15T07:19:05;76.47;;;45.93;;
55423;SDS011;41294;42.666;23.350;2024-01-15T07:21:32;79.47;;;45.40;;
55423;SDS011;41294;42.666;23.350;2024-01-15T07:23:57;79.90;;;44.87;;
55423;SDS011;41294;42.666;23.350;2024-01-15T07:26:23;85.07;;;46.10;;
55423;SDS011;41294;42.666;23.350;2024-01-15T07:28:49;91.30;;;48.70;;
55423;SDS011;41294;42.666;23.350;2024-01-15T07:31:15;89.90;;;50.20;;
55423;SDS011;41294;42.666;23.350;2024-01-15T07:33:41;87.77;;;49.70;;
55423;SDS011;41294;42.666;23.350;2024-01-15T07:36:06;91.03;;;50.10;;
55423;SDS011;41294;42.666;23.350;2024-01-15T07:38:32;90.63;;;48.23;;
55423;SDS011;41294;42.666;23.350;2024-01-15T07:40:58;93.30;;;50.00;;
55423;SDS011;41294;42.666;23.350;2024-01-15T07:43:23;94.27;;;49.93;;
55423;SDS011;41294;42.666;23.350;2024-01-15T07:45:49;83.17;;;48.30;;
55423;SDS011;41294;42.666;23.350;2024-01-15T07:48:14;77.87;;;47.70;;
55423;SDS011;41294;42.666;23.350;2024-01-15T07:50:40;85.00;;;48.03;;
55423;SDS011;41294;42.666;23.350;2024-01-15T07:53:06;89.77;;;48.67;;
55423;SDS011;41294;42.666;23.350;2024-01-15T07:55:32;82.53;;;47.00;;
55423;SDS011;41294;42.666;23.350;2024-01-15T07:57:57;49.63;;;30.43;;
55423;SDS011;41294;42.666;23.350;2024-01-15T08:00:25;48.93;;;29.53;;
55423;SDS011;41294;42.666;23.350;2024-01-15T08:02:51;64.03;;;36.33;;
55423;SDS011;41294;42.666;23.350;2024-01-15T08:05:18;55.40;;;32.97;;
55423;SDS011;41294;42.666;23.350;2024-01-15T08:07:43;51.77;;;32.37;;
55423;SDS011;41294;42.666;23.350;2024-01-15T08:10:09;48.80;;;31.50;;
55423;SDS011;41294;42.666;23.350;2024-01-15T08:12:34;57.53;;;32.80;;
55423;SDS011;41294;42.666;23.350;2024-01-15T08:15:00;50.53;;;31.80;;
55423;SDS011;41294;42.666;23.350;2024-01-15T08:17:25;54.10;;;31.40;;
55423;SDS011;41294;42.666;23.350;2024-01-15T08:19:54;47.03;;;31.13;;
55423;SDS011;41294;42.666;23.350;2024-01-15T08:22:20;50.73;;;31.33;;
55423;SDS011;41294;42.666;23.350;2024-01-15T08:24:45;49.03;;;30.20;;
55423;SDS011;41294;42.666;23.350;2024-01-15T08:27:12;52.90;;;31.07;;
55423;SDS011;41294;42.666;23.350;2024-01-15T08:29:37;52.60;;;31.77;;
55423;SDS011;41294;42.666;23.350;2024-01-15T08:32:03;51.80;;;31.37;;
55423;SDS011;41294;42.666;23.350;2024-01-15T08:34:29;50.67;;;30.33;;
55423;SDS011;41294;42.666;23.350;2024-01-15T08:36:54;47.57;;;32.03;;
55423;SDS011;41294;42.666;23.350;2024-01-15T08:39:20;49.33;;;30.47;;
55423;SDS011;41294;42.666;23.350;2024-01-15T08:41:45;46.30;;;29.57;;
55423;SDS011;41294;42.666;23.350;2024-01-15T08:44:11;50.03;;;30.33;;
55423;SDS011;41294;42.666;23.350;2024-01-15T08:46:37;53.27;;;31.10;;
55423;SDS011;41294;42.666;23.350;2024-01-15T08:49:03;51.33;;;32.00;;
55423;SDS011;41294;42.666;23.350;2024-01-15T08:51:29;49.37;;;29.57;;
55423;SDS011;41294;42.666;23.350;2024-01-15T08:53:56;46.30;;;29.13;;
55423;SDS011;41294;42.666;23.350;2024-01-15T08:56:21;43.70;;;28.67;;
55423;SDS011;41294;42.666;23.350;2024-01-15T08:58:47;43.40;;;28.90;;
55423;SDS011;41294;42.666;23.350;2024-01-15T09:01:13;39.10;;;27.87;;
55423;SDS011;41294;42.666;23.350;2024-01-15T09:03:39;42.00;;;27.00;;
55423;SDS011;41294;42.666;23.350;2024-01-15T09:06:06;39.03;;;26.67;;
55423;SDS011;41294;42.666;23.350;2024-01-15T09:08:32;35.47;;;24.90;;
55423;SDS011;41294;42.666;23.350;2024-01-15T09:10:58;33.07;;;23.03;;
55423;SDS011;41294;42.666;23.350;2024-01-15T09:13:23;33.17;;;22.33;;
55423;SDS011;41294;42.666;23.350;2024-01-15T09:15:49;33.17;;;23.50;;
55423;SDS011;41294;42.666;23.350;2024-01-15T09:18:14;40.10;;;25.13;;
55423;SDS011;41294;42.666;23.350;2024-01-15T09:20:40;51.10;;;33.97;;
55423;SDS011;41294;42.666;23.350;2024-01-15T09:23:05;53.17;;;33.57;;
55423;SDS011;41294;42.666;23.350;2024-01-15T09:25:31;52.53;;;33.47;;
55423;SDS011;41294;42.666;23.350;2024-01-15T09:27:57;50.27;;;31.33;;
55423;SDS011;41294;42.666;23.350;2024-01-15T09:30:23;49.97;;;29.30;;
55423;SDS011;41294;42.666;23.350;2024-01-15T09:32:48;49.00;;;30.07;;
55423;SDS011;41294;42.666;23.350;2024-01-15T09:35:14;49.37;;;30.60;;
55423;SDS011;41294;42.666;23.350;2024-01-15T09:37:40;46.93;;;27.67;;
55423;SDS011;41294;42.666;23.350;2024-01-15T09:40:08;51.40;;;32.50;;
55423;SDS011;41294;42.666;23.350;2024-01-15T09:42:38;62.43;;;37.60;;
55423;SDS011;41294;42.666;23.350;2024-01-15T09:45:04;69.83;;;43.73;;
55423;SDS011;41294;42.666;23.350;2024-01-15T09:47:30;77.23;;;46.40;;
55423;SDS011;41294;42.666;23.350;2024-01-15T09:49:56;75.83;;;48.27;;
55423;SDS011;41294;42.666;23.350;2024-01-15T09:52:23;76.57;;;47.00;;
55423;SDS011;41294;42.666;23.350;2024-01-15T09:54:50;68.80;;;44.97;;
55423;SDS011;41294;42.666;23.350;2024-01-15T09:57:17;69.50;;;44.60;;
55423;SDS011;41294;42.666;23.350;2024-01-15T09:59:42;60.50;;;37.70;;
55423;SDS011;41294;42.666;23.350;2024-01-15T10:02:11;56.73;;;33.57;;
55423;SDS011;41294;42.666;23.350;2024-01-15T10:04:42;54.60;;;35.77;;
55423;SDS011;41294;42.666;23.350;2024-01-15T10:07:08;53.03;;;33.83;;
55423;SDS011;41294;42.666;23.350;2024-01-15T10:09:35;51.30;;;32.47;;
55423;SDS011;41294;42.666;23.350;2024-01-15T10:12:00;62.53;;;35.73;;
55423;SDS011;41294;42.666;23.350;2024-01-15T10:14:26;52.03;;;32.03;;
55423;SDS011;41294;42.666;23.350;2024-01-15T10:16:52;65.27;;;38.10;;
55423;SDS011;41294;42.666;23.350;2024-01-15T10:19:17;67.07;;;40.63;;
55423;SDS011;41294;42.666;23.350;2024-01-15T10:21:43;80.67;;;45.87;;
55423;SDS011;41294;42.666;23.350;2024-01-15T10:24:08;73.13;;;41.80;;
55423;SDS011;41294;42.666;23.350;2024-01-15T10:26:34;60.57;;;35.87;;
55423;SDS011;41294;42.666;23.350;2024-01-15T10:29:01;53.00;;;33.73;;
55423;SDS011;41294;42.666;23.350;2024-01-15T10:31:26;53.63;;;33.80;;
55423;SDS011;41294;42.666;23.350;2024-01-15T10:33:53;73.30;;;42.37;;
55423;SDS011;41294;42.666;23.350;2024-01-15T10:36:19;59.53;;;37.47;;
55423;SDS011;41294;42.666;23.350;2024-01-15T10:38:44;79.40;;;43.97;;
55423;SDS011;41294;42.666;23.350;2024-01-15T10:41:10;59.57;;;36.30;;
55423;SDS011;41294;42.666;23.350;2024-01-15T10:43:36;63.37;;;40.23;;
55423;SDS011;41294;42.666;23.350;2024-01-15T10:46:02;62.87;;;38.10;;
55423;SDS011;41294;42.666;23.350;2024-01-15T10:48:28;62.83;;;36.53;;
55423;SDS011;41294;42.666;23.350;2024-01-15T10:50:56;59.03;;;37.57;;
55423;SDS011;41294;42.666;23.350;2024-01-15T10:53:22;65.37;;;38.20;;
55423;SDS011;41294;42.666;23.350;2024-01-15T10:55:48;62.80;;;40.77;;
55423;SDS011;41294;42.666;23.350;2024-01-15T10:58:16;57.83;;;34.60;;
55423;SDS011;41294;42.666;23.350;2024-01-15T11:00:43;58.00;;;33.63;;
55423;SDS011;41294;42.666;23.350;2024-01-15T11:03:09;54.70;;;35.20;;
55423;SDS011;41294;42.666;23.350;2024-01-15T11:05:44;60.33;;;35.40;;
55423;SDS011;41294;42.666;23.350;2024-01-15T11:08:10;67.20;;;38.93;;
55423;SDS011;41294;42.666;23.350;2024-01-15T11:10:46;54.97;;;35.17;;
55423;SDS011;41294;42.666;23.350;2024-01-15T11:16:08;55.00;;;34.67;;
55423;SDS011;41294;42.666;23.350;2024-01-15T11:18:42;54.07;;;35.07;;
55423;SDS011;41294;42.666;23.350;2024-01-15T11:23:53;53.00;;;34.33;;
55423;SDS011;41294;42.666;23.350;2024-01-15T11:34:20;46.07;;;28.40;;
55423;SDS011;41294;42.666;23.350;2024-01-15T11:41:52;42.67;;;27.60;;
55423;SDS011;41294;42.666;23.350;2024-01-15T11:44:20;38.63;;;24.83;;
55423;SDS011;41294;42.666;23.350;2024-01-15T11:46:53;37.23;;;23.67;;
55423;SDS011;41294;42.666;23.350;2024-01-15T11:52:23;34.07;;;23.80;;
55423;SDS011;41294;42.666;23.350;2024-01-15T11:57:40;40.60;;;22.30;;
55423;SDS011;41294;42.666;23.350;2024-01-15T12:00:08;35.97;;;24.00;;
55423;SDS011;41294;42.666;23.350;2024-01-15T12:02:40;38.47;;;22.53;;
55423;SDS011;41294;42.666;23.350;2024-01-15T12:05:10;41.03;;;25.77;;
55423;SDS011;41294;42.666;23.350;2024-01-15T12:07:41;37.67;;;24.07;;
55423;SDS011;41294;42.666;23.350;2024-01-15T12:10:12;37.00;;;25.13;;
55423;SDS011;41294;42.666;23.350;2024-01-15T12:12:59;36.60;;;23.00;;
55423;SDS011;41294;42.666;23.350;2024-01-15T12:15:28;36.60;;;22.67;;
55423;SDS011;41294;42.666;23.350;2024-01-15T12:18:01;36.60;;;22.30;;
55423;SDS011;41294;42.666;23.350;2024-01-15T12:20:27;37.70;;;21.97;;
55423;SDS011;41294;42.666;23.350;2024-01-15T12:22:55;36.17;;;21.83;;
55423;SDS011;41294;42.666;23.350;2024-01-15T12:25:22;33.40;;;20.00;;
55423;SDS011;41294;42.666;23.350;2024-01-15T12:27:50;33.90;;;20.80;;
55423;SDS011;41294;42.666;23.350;2024-01-15T12:30:17;34.03;;;22.00;;
55423;SDS011;41294;42.666;23.350;2024-01-15T12:32:42;31.70;;;19.77;;
55423;SDS011;41294;42.666;23.350;2024-01-15T12:35:08;32.97;;;21.37;;
55423;SDS011;41294;42.666;23.350;2024-01-15T12:37:35;30.40;;;19.87;;
55423;SDS011;41294;42.666;23.350;2024-01-15T12:40:09;30.30;;;20.00;;
55423;SDS011;41294;42.666;23.350;2024-01-15T12:42:36;40.20;;;25.47;;
55423;SDS011;41294;42.666;23.350;2024-01-15T12:45:03;32.17;;;19.23;;
55423;SDS011;41294;42.666;23.350;2024-01-15T12:47:30;31.53;;;19.53;;
55423;SDS011;41294;42.666;23.350;2024-01-15T12:49:57;28.80;;;19.53;;
55423;SDS011;41294;42.666;23.350;2024-01-15T12:52:26;31.13;;;20.17;;
55423;SDS011;41294;42.666;23.350;2024-01-15T12:54:52;32.87;;;19.50;;
55423;SDS011;41294;42.666;23.350;2024-01-15T12:57:17;36.27;;;23.70;;
55423;SDS011;41294;42.666;23.350;2024-01-15T12:59:43;31.80;;;20.37;;
55423;SDS011;41294;42.666;23.350;2024-01-15T13:02:10;33.53;;;19.33;;
55423;SDS011;41294;42.666;23.350;2024-01-15T13:04:37;36.67;;;19.17;;
55423;SDS011;41294;42.666;23.350;2024-01-15T13:07:02;25.27;;;17.97;;
55423;SDS011;41294;42.666;23.350;2024-01-15T13:09:28;29.53;;;17.80;;
55423;SDS011;41294;42.666;23.350;2024-01-15T13:11:54;30.83;;;19.70;;
55423;SDS011;41294;42.666;23.350;2024-01-15T13:14:20;27.47;;;20.30;;
55423;SDS011;41294;42.666;23.350;2024-01-15T13:16:45;30.20;;;19.60;;
55423;SDS011;41294;42.666;23.350;2024-01-15T13:19:11;30.23;;;19.97;;
55423;SDS011;41294;42.666;23.350;2024-01-15T13:21:38;30.97;;;20.30;;
55423;SDS011;41294;42.666;23.350;2024-01-15T13:24:05;40.80;;;24.13;;
55423;SDS011;41294;42.666;23.350;2024-01-15T13:26:31;34.73;;;21.63;;
55423;SDS011;41294;42.666;23.350;2024-01-15T13:28:59;36.87;;;22.87;;
55423;SDS011;41294;42.666;23.350;2024-01-15T13:31:25;32.90;;;20.63;;
55423;SDS011;41294;42.666;23.350;2024-01-15T13:33:51;31.13;;;21.23;;
55423;SDS011;41294;42.666;23.350;2024-01-15T13:36:16;30.73;;;20.13;;
55423;SDS011;41294;42.666;23.350;2024-01-15T13:38:41;33.00;;;21.07;;
55423;SDS011;41294;42.666;23.350;2024-01-15T13:41:07;34.03;;;20.57;;
55423;SDS011;41294;42.666;23.350;2024-01-15T13:43:33;32.63;;;19.77;;
55423;SDS011;41294;42.666;23.350;2024-01-15T13:45:59;31.37;;;21.27;;
55423;SDS011;41294;42.666;23.350;2024-01-15T13:48:25;34.97;;;22.03;;
55423;SDS011;41294;42.666;23.350;2024-01-15T13:50:52;29.73;;;19.93;;
55423;SDS011;41294;42.666;23.350;2024-01-15T13:53:18;28.43;;;20.10;;
55423;SDS011;41294;42.666;23.350;2024-01-15T13:55:44;34.63;;;21.60;;
55423;SDS011;41294;42.666;23.350;2024-01-15T13:58:11;33.57;;;21.83;;
55423;SDS011;41294;42.666;23.350;2024-01-15T14:00:37;28.80;;;19.10;;
55423;SDS011;41294;42.666;23.350;2024-01-15T14:03:04;28.23;;;19.80;;
55423;SDS011;41294;42.666;23.350;2024-01-15T14:05:30;29.10;;;20.37;;
55423;SDS011;41294;42.666;23.350;2024-01-15T14:07:56;36.13;;;20.83;;
55423;SDS011;41294;42.666;23.350;2024-01-15T14:10:21;32.47;;;20.60;;
55423;SDS011;41294;42.666;23.350;2024-01-15T14:12:47;31.60;;;21.20;;
55423;SDS011;41294;42.666;23.350;2024-01-15T14:15:12;33.27;;;22.10;;
55423;SDS011;41294;42.666;23.350;2024-01-15T14:17:38;34.03;;;21.60;;
55423;SDS011;41294;42.666;23.350;2024-01-15T14:20:03;32.63;;;20.53;;
55423;SDS011;41294;42.666;23.350;2024-01-15T14:22:30;34.30;;;20.93;;
55423;SDS011;41294;42.666;23.350;2024-01-15T14:24:56;36.97;;;22.83;;
55423;SDS011;41294;42.666;23.350;2024-01-15T14:27:21;32.00;;;21.23;;